createdAt,value
2023-04-02T00:02:00.237Z,5.81
2023-04-02T00:04:30.129Z,5.76
2023-04-02T00:07:32.637Z,5.79
2023-04-02T00:09:59.573Z,5.75
2023-04-02T00:12:26.100Z,5.73
2023-04-02T00:14:55.097Z,5.70
2023-04-02T00:17:24.902Z,5.71
2023-04-02T00:20:01.304Z,5.74
2023-04-02T00:22:31.722Z,5.76
2023-04-02T00:25:01.544Z,5.75
2023-04-02T00:27:32.820Z,5.77
2023-04-02T00:30:00.424Z,5.78
2023-04-02T00:32:31.025Z,5.78
2023-04-02T00:35:00.715Z,5.80
2023-04-02T00:37:38.656Z,5.82
2023-04-02T00:40:15.598Z,5.81
2023-04-02T00:42:43.579Z,5.80
2023-04-02T00:45:25.147Z,5.81
2023-04-02T00:47:56.241Z,5.77
2023-04-02T00:50:45.474Z,5.76
2023-04-02T00:53:24.082Z,5.74
2023-04-02T00:55:50.592Z,5.72
2023-04-02T00:58:26.622Z,5.70
2023-04-02T01:00:54.010Z,5.68
2023-04-02T01:03:22.976Z,5.74
2023-04-02T01:06:16.050Z,5.75
2023-04-02T01:09:11.412Z,5.76
2023-04-02T01:11:58.280Z,5.77
2023-04-02T01:14:45.856Z,5.75
2023-04-02T01:17:37.470Z,5.76
2023-04-02T01:20:37.346Z,5.75
2023-04-02T01:23:14.973Z,5.74
2023-04-02T01:26:12.900Z,5.76
2023-04-02T01:29:01.982Z,5.74
2023-04-02T01:31:30.667Z,5.73
2023-04-02T01:33:57.264Z,5.69
2023-04-02T01:36:45.234Z,5.68
2023-04-02T01:39:27.357Z,5.69
2023-04-02T01:42:17.345Z,5.71
2023-04-02T01:44:48.750Z,5.70
2023-04-02T01:47:21.384Z,5.71
2023-04-02T01:49:52.327Z,5.74
2023-04-02T01:52:36.233Z,5.77
2023-04-02T01:55:03.701Z,5.74
2023-04-02T01:57:31.137Z,5.73
2023-04-02T02:00:00.710Z,5.75
2023-04-02T02:02:27.957Z,5.75
2023-04-02T02:04:54.572Z,5.77
2023-04-02T02:07:21.817Z,5.75
2023-04-02T02:09:51.312Z,5.78
2023-04-02T02:12:18.164Z,5.76
2023-04-02T02:14:50.310Z,5.76
2023-04-02T02:17:24.254Z,5.76
2023-04-02T02:20:04.057Z,5.76
2023-04-02T02:22:46.637Z,5.74
2023-04-02T02:25:40.476Z,5.75
2023-04-02T02:28:14.100Z,5.75
2023-04-02T02:31:19.622Z,5.74
2023-04-02T02:33:51.134Z,5.75
2023-04-02T02:36:28.247Z,5.76
2023-04-02T02:39:16.512Z,5.75
2023-04-02T02:41:51.720Z,5.75
2023-04-02T02:44:25.928Z,5.76
2023-04-02T02:47:01.878Z,5.80
2023-04-02T02:49:32.613Z,5.82
2023-04-02T02:52:08.442Z,5.80
2023-04-02T02:54:38.233Z,5.83
2023-04-02T02:57:11.706Z,5.84
2023-04-02T02:59:42.050Z,5.86
2023-04-02T03:02:09.073Z,5.86
2023-04-02T03:04:38.023Z,5.86
2023-04-02T03:07:06.670Z,5.86
2023-04-02T03:10:09.612Z,5.85
2023-04-02T03:12:50.195Z,5.85
2023-04-02T03:15:27.925Z,5.86
2023-04-02T03:18:00.511Z,5.87
2023-04-02T03:20:48.398Z,5.86
2023-04-02T03:23:29.945Z,5.88
2023-04-02T03:26:05.212Z,5.89
2023-04-02T03:28:37.496Z,5.91
2023-04-02T03:31:14.528Z,5.89
2023-04-02T03:33:47.775Z,5.89
2023-04-02T03:36:30.391Z,5.88
2023-04-02T03:39:22.954Z,5.89
2023-04-02T03:41:51.165Z,5.88
2023-04-02T03:44:44.308Z,5.88
2023-04-02T03:47:17.380Z,5.87
2023-04-02T03:49:49.556Z,5.86
2023-04-02T03:52:37.632Z,5.85
2023-04-02T03:55:15.980Z,5.86
2023-04-02T03:57:54.643Z,5.86
2023-04-02T04:00:28.968Z,5.87
2023-04-02T04:03:03.287Z,5.88
2023-04-02T04:05:43.874Z,5.86
2023-04-02T04:08:24.384Z,5.85
2023-04-02T04:10:53.971Z,5.86
2023-04-02T04:13:30.741Z,5.86
2023-04-02T04:16:05.486Z,5.84
2023-04-02T04:18:46.886Z,5.84
2023-04-02T04:21:30.163Z,5.88
2023-04-02T04:24:29.448Z,5.90
2023-04-02T04:27:36.098Z,5.91
2023-04-02T04:30:24.626Z,5.91
2023-04-02T04:32:58.524Z,5.90
2023-04-02T04:35:31.357Z,5.89
2023-04-02T04:38:05.826Z,5.89
2023-04-02T04:40:38.271Z,5.90
2023-04-02T04:43:12.377Z,5.89
2023-04-02T04:45:47.834Z,5.90
2023-04-02T04:48:38.416Z,5.91
2023-04-02T04:51:17.514Z,5.88
2023-04-02T04:53:49.818Z,5.91
2023-04-02T04:56:29.328Z,5.86
2023-04-02T04:59:17.538Z,5.83
2023-04-02T05:02:03.466Z,5.80
2023-04-02T05:04:39.410Z,5.77
2023-04-02T05:07:12.393Z,5.74
2023-04-02T05:09:49.931Z,5.73
2023-04-02T05:12:33.502Z,5.72
2023-04-02T05:15:24.481Z,5.71
2023-04-02T05:18:31.388Z,5.69
2023-04-02T05:21:07.333Z,5.68
2023-04-02T05:24:13.478Z,5.68
2023-04-02T05:26:47.542Z,5.67
2023-04-02T05:29:36.341Z,5.66
2023-04-02T05:32:17.767Z,5.67
2023-04-02T05:34:50.713Z,5.68
2023-04-02T05:37:23.331Z,5.67
2023-04-02T05:39:54.999Z,5.67
2023-04-02T05:42:31.107Z,5.68
2023-04-02T05:45:38.994Z,5.69
2023-04-02T05:48:21.420Z,5.70
2023-04-02T05:50:52.740Z,5.69
2023-04-02T05:53:27.424Z,5.69
2023-04-02T05:55:59.171Z,5.71
2023-04-02T05:58:45.522Z,5.72
2023-04-02T06:01:47.384Z,5.73
2023-04-02T06:04:26.183Z,5.75
2023-04-02T06:07:07.427Z,5.75
2023-04-02T06:09:46.671Z,5.76
2023-04-02T06:12:32.414Z,5.79
2023-04-02T06:14:59.103Z,5.80
2023-04-02T06:17:28.829Z,5.81
2023-04-02T06:20:04.548Z,5.82
2023-04-02T06:22:34.863Z,5.88
2023-04-02T06:25:26.098Z,5.89
2023-04-02T06:27:56.847Z,5.91
2023-04-02T06:30:32.502Z,5.94
2023-04-02T06:32:58.947Z,5.97
2023-04-02T06:35:25.690Z,6.01
2023-04-02T06:37:54.557Z,6.04
2023-04-02T06:40:33.780Z,6.08
2023-04-02T06:43:06.821Z,6.10
2023-04-02T06:45:41.413Z,6.16
2023-04-02T06:48:17.441Z,6.20
2023-04-02T06:51:01.932Z,6.24
2023-04-02T06:53:34.268Z,6.29
2023-04-02T06:56:06.038Z,6.32
2023-04-02T06:58:32.939Z,6.37
2023-04-02T07:01:08.117Z,6.44
2023-04-02T07:03:35.105Z,6.52
2023-04-02T07:06:03.379Z,6.58
2023-04-02T07:08:30.179Z,6.65
2023-04-02T07:10:56.890Z,6.70
2023-04-02T07:13:26.278Z,6.76
2023-04-02T07:15:55.173Z,6.80
2023-04-02T07:18:33.875Z,6.83
2023-04-02T07:21:00.803Z,6.90
2023-04-02T07:23:27.349Z,6.95
2023-04-02T07:25:55.144Z,7.01
2023-04-02T07:28:24.335Z,7.05
2023-04-02T07:30:51.478Z,7.13
2023-04-02T07:33:21.647Z,7.17
2023-04-02T07:35:50.347Z,7.27
2023-04-02T07:38:17.175Z,7.31
2023-04-02T07:40:43.911Z,7.39
2023-04-02T07:43:10.815Z,7.47
2023-04-02T07:45:37.604Z,7.57
2023-04-02T07:48:08.919Z,7.60
2023-04-02T07:50:44.044Z,7.56
2023-04-02T07:53:27.598Z,7.53
2023-04-02T07:55:58.620Z,7.55
2023-04-02T07:58:25.207Z,7.57
2023-04-02T08:00:51.704Z,7.60
2023-04-02T08:03:18.895Z,7.59
2023-04-02T08:05:57.624Z,7.60
2023-04-02T08:08:32.696Z,7.68
2023-04-02T08:10:59.208Z,7.72
2023-04-02T08:13:28.037Z,7.74
2023-04-02T08:15:54.707Z,7.82
2023-04-02T08:18:24.046Z,7.85
2023-04-02T08:20:50.605Z,7.98
2023-04-02T08:23:19.748Z,8.00
2023-04-02T08:25:46.617Z,8.11
2023-04-02T08:28:13.534Z,8.21
2023-04-02T08:30:40.668Z,8.28
2023-04-02T08:33:07.486Z,8.34
2023-04-02T08:35:34.787Z,8.40
2023-04-02T08:38:03.731Z,8.41
2023-04-02T08:40:38.409Z,8.54
2023-04-02T08:43:41.988Z,8.78
2023-04-02T08:46:18.140Z,8.80
2023-04-02T08:48:51.370Z,8.81
2023-04-02T08:51:27.283Z,8.94
2023-04-02T08:54:02.449Z,8.95
2023-04-02T08:56:47.659Z,9.05
2023-04-02T08:59:20.787Z,9.11
2023-04-02T09:02:06.320Z,9.09
2023-04-02T09:04:34.336Z,9.18
2023-04-02T09:07:01.073Z,9.17
2023-04-02T09:09:28.116Z,9.01
2023-04-02T09:11:56.840Z,9.00
2023-04-02T09:14:41.937Z,8.94
2023-04-02T09:17:26.541Z,8.98
2023-04-02T09:20:01.703Z,9.06
2023-04-02T09:22:33.619Z,9.11
2023-04-02T09:25:02.697Z,9.09
2023-04-02T09:27:33.871Z,9.12
2023-04-02T09:30:12.498Z,9.25
2023-04-02T09:32:48.288Z,9.31
2023-04-02T09:35:26.866Z,9.26
2023-04-02T09:38:21.701Z,9.25
2023-04-02T09:40:50.523Z,9.18
2023-04-02T09:43:18.747Z,9.19
2023-04-02T09:45:59.052Z,9.25
2023-04-02T09:48:32.340Z,9.23
2023-04-02T09:51:13.219Z,9.28
2023-04-02T09:54:07.316Z,9.30
2023-04-02T09:56:35.873Z,9.23
2023-04-02T09:59:06.264Z,9.21
2023-04-02T10:01:34.566Z,9.22
2023-04-02T10:04:03.584Z,9.18
2023-04-02T10:06:33.810Z,9.28
2023-04-02T10:12:25.422Z,9.34
2023-04-02T10:14:54.169Z,9.30
2023-04-02T10:17:31.050Z,9.33
2023-04-02T10:20:18.920Z,9.41
2023-04-02T10:22:49.458Z,9.58
2023-04-02T10:25:17.981Z,9.85
2023-04-02T10:28:18.559Z,10.22
2023-04-02T10:31:03.409Z,10.49
2023-04-02T10:33:46.652Z,10.86
2023-04-02T10:36:48.233Z,11.02
2023-04-02T10:39:36.834Z,11.04
2023-04-02T10:42:36.721Z,11.06
2023-04-02T10:45:22.583Z,11.41
2023-04-02T10:48:00.740Z,11.52
2023-04-02T10:50:50.387Z,11.65
2023-04-02T10:53:20.403Z,11.70
2023-04-02T10:55:53.991Z,11.74
2023-04-02T10:58:27.033Z,12.00
2023-04-02T11:01:05.666Z,12.26
2023-04-02T11:03:54.925Z,12.30
2023-04-02T11:06:48.118Z,12.20
2023-04-02T11:09:20.533Z,12.04
2023-04-02T11:11:53.142Z,11.87
2023-04-02T11:14:24.906Z,11.88
2023-04-02T11:16:53.622Z,11.91
2023-04-02T11:19:27.126Z,11.87
2023-04-02T11:21:59.746Z,11.80
2023-04-02T11:24:31.727Z,11.75
2023-04-02T11:27:12.435Z,11.74
2023-04-02T11:29:46.276Z,11.72
2023-04-02T11:32:20.767Z,11.74
2023-04-02T11:34:59.548Z,11.76
2023-04-02T11:37:36.961Z,11.89
2023-04-02T11:40:23.897Z,11.82
2023-04-02T11:42:53.362Z,11.61
2023-04-02T11:45:29.275Z,11.53
2023-04-02T11:48:13.258Z,11.63
2023-04-02T11:50:42.485Z,11.58
2023-04-02T11:53:12.371Z,11.50
2023-04-02T11:55:41.628Z,11.48
2023-04-02T11:58:29.512Z,11.53
2023-04-02T12:01:25.068Z,11.72
2023-04-02T12:04:13.550Z,11.97
2023-04-02T12:07:04.601Z,12.32
2023-04-02T12:09:53.303Z,12.56
2023-04-02T12:12:32.284Z,12.80
2023-04-02T12:15:02.153Z,13.01
2023-04-02T12:17:35.035Z,13.05
2023-04-02T12:20:08.654Z,13.12
2023-04-02T12:22:39.103Z,13.13
2023-04-02T12:25:31.358Z,13.22
2023-04-02T12:28:09.909Z,13.20
2023-04-02T12:30:38.029Z,13.23
2023-04-02T12:33:19.845Z,13.36
2023-04-02T12:35:47.986Z,13.32
2023-04-02T12:38:51.303Z,12.87
2023-04-02T12:41:35.147Z,12.84
2023-04-02T12:44:17.495Z,12.69
2023-04-02T12:46:53.497Z,12.69
2023-04-02T12:49:38.801Z,12.88
2023-04-02T12:52:13.378Z,12.98
2023-04-02T12:54:46.973Z,13.21
2023-04-02T12:57:41.533Z,13.36
2023-04-02T13:00:20.301Z,13.41
2023-04-02T13:03:18.593Z,13.39
2023-04-02T13:05:56.480Z,13.49
2023-04-02T13:08:40.675Z,13.71
2023-04-02T13:11:07.639Z,13.51
2023-04-02T13:13:37.128Z,13.37
2023-04-02T13:16:24.583Z,13.18
2023-04-02T13:18:51.849Z,13.14
2023-04-02T13:21:21.394Z,13.09
2023-04-02T13:23:49.675Z,13.10
2023-04-02T13:26:22.562Z,13.13
2023-04-02T13:29:01.137Z,13.02
2023-04-02T13:31:29.369Z,12.96
2023-04-02T13:33:55.940Z,13.04
2023-04-02T13:36:29.471Z,13.07
2023-04-02T13:38:56.469Z,13.03
2023-04-02T13:41:26.539Z,13.04
2023-04-02T13:43:56.440Z,12.97
2023-04-02T13:46:27.793Z,12.95
2023-04-02T13:48:55.630Z,12.88
2023-04-02T13:51:35.822Z,12.79
2023-04-02T13:54:03.908Z,12.83
2023-04-02T13:56:31.161Z,12.74
2023-04-02T13:58:57.821Z,12.57
2023-04-02T14:01:25.503Z,12.41
2023-04-02T14:03:54.315Z,12.38
2023-04-02T14:06:29.768Z,12.32
2023-04-02T14:09:04.289Z,12.34
2023-04-02T14:11:47.625Z,12.45
2023-04-02T14:14:35.518Z,12.55
2023-04-02T14:17:20.215Z,12.72
2023-04-02T14:20:14.573Z,12.83
2023-04-02T14:23:02.609Z,12.85
2023-04-02T14:25:44.264Z,12.94
2023-04-02T14:28:27.325Z,12.96
2023-04-02T14:31:06.604Z,12.84
2023-04-02T14:33:46.535Z,12.77
2023-04-02T14:36:23.356Z,12.84
2023-04-02T14:38:59.427Z,12.93
2023-04-02T14:41:38.676Z,12.94
2023-04-02T14:44:13.088Z,13.08
2023-04-02T14:46:39.894Z,13.08
2023-04-02T14:49:31.731Z,13.14
2023-04-02T14:52:06.223Z,13.29
2023-04-02T14:55:00.671Z,13.30
2023-04-02T14:57:35.547Z,13.37
2023-04-02T15:00:18.506Z,13.44
2023-04-02T15:02:58.429Z,13.57
2023-04-02T15:05:59.146Z,13.50
2023-04-02T15:08:55.419Z,13.50
2023-04-02T15:11:56.547Z,13.39
2023-04-02T15:14:25.728Z,13.38
2023-04-02T15:16:52.233Z,13.41
2023-04-02T15:19:25.961Z,13.37
2023-04-02T15:22:19.677Z,13.39
2023-04-02T15:24:56.260Z,13.43
2023-04-02T15:27:31.535Z,13.44
2023-04-02T15:30:18.238Z,13.50
2023-04-02T15:32:45.993Z,13.53
2023-04-02T15:35:24.364Z,13.47
2023-04-02T15:38:09.509Z,13.29
2023-04-02T15:40:48.895Z,13.06
2023-04-02T15:43:29.170Z,12.93
2023-04-02T15:46:23.828Z,12.86
2023-04-02T15:49:21.834Z,12.80
2023-04-02T15:52:06.499Z,12.73
2023-04-02T15:54:44.889Z,12.65
2023-04-02T15:57:34.217Z,12.57
2023-04-02T16:00:22.205Z,12.68
2023-04-02T16:03:20.972Z,12.66
2023-04-02T16:06:12.988Z,12.65
2023-04-02T16:08:50.443Z,12.67
2023-04-02T16:11:17.071Z,12.73
2023-04-02T16:13:43.796Z,12.73
2023-04-02T16:16:21.458Z,12.81
2023-04-02T16:19:02.147Z,12.86
2023-04-02T16:22:11.656Z,12.87
2023-04-02T16:24:38.391Z,12.79
2023-04-02T16:27:33.516Z,12.72
2023-04-02T16:30:22.539Z,12.55
2023-04-02T16:33:09.511Z,12.47
2023-04-02T16:36:11.605Z,12.45
2023-04-02T16:38:46.399Z,12.43
2023-04-02T16:41:39.116Z,12.29
2023-04-02T16:44:18.841Z,12.35
2023-04-02T16:46:54.528Z,12.36
2023-04-02T16:49:27.183Z,12.20
2023-04-02T16:51:59.973Z,12.08
2023-04-02T16:54:43.469Z,11.97
2023-04-02T16:57:14.906Z,11.82
2023-04-02T17:00:01.174Z,11.64
2023-04-02T17:02:30.880Z,11.53
2023-04-02T17:05:11.733Z,11.53
2023-04-02T17:07:48.358Z,11.44
2023-04-02T17:10:21.277Z,11.39
2023-04-02T17:12:56.959Z,11.35
2023-04-02T17:15:28.582Z,11.33
2023-04-02T17:18:00.629Z,11.18
2023-04-02T17:20:28.341Z,11.00
2023-04-02T17:22:56.135Z,10.65
2023-04-02T17:25:33.338Z,10.43
2023-04-02T17:28:02.160Z,10.30
2023-04-02T17:30:38.324Z,10.02
2023-04-02T17:33:11.840Z,9.92
2023-04-02T17:35:50.625Z,9.91
2023-04-02T17:38:31.232Z,9.79
2023-04-02T17:41:16.806Z,9.69
2023-04-02T17:44:02.498Z,9.56
2023-04-02T17:46:41.674Z,9.58
2023-04-02T17:49:20.043Z,9.54
2023-04-02T17:51:55.433Z,9.50
2023-04-02T17:54:40.515Z,9.47
2023-04-02T17:57:37.652Z,9.39
2023-04-02T18:00:23.130Z,9.42
2023-04-02T18:03:29.456Z,9.44
2023-04-02T18:06:27.650Z,9.40
2023-04-02T18:09:33.411Z,9.41
2023-04-02T18:12:18.547Z,9.33
2023-04-02T18:15:09.305Z,9.22
2023-04-02T18:17:52.994Z,9.17
2023-04-02T18:20:28.484Z,9.04
2023-04-02T18:22:54.919Z,8.98
2023-04-02T18:25:39.609Z,8.89
2023-04-02T18:28:16.316Z,8.82
2023-04-02T18:30:56.776Z,8.75
2023-04-02T18:33:32.484Z,8.65
2023-04-02T18:36:19.004Z,8.53
2023-04-02T18:38:57.430Z,8.49
2023-04-02T18:41:47.644Z,8.47
2023-04-02T18:44:16.819Z,8.40
2023-04-02T18:46:56.492Z,8.34
2023-04-02T18:49:29.452Z,8.32
2023-04-02T18:52:04.169Z,8.27
2023-04-02T18:54:38.439Z,8.25
2023-04-02T18:57:39.104Z,8.22
2023-04-02T19:00:22.084Z,8.13
2023-04-02T19:03:07.227Z,8.11
2023-04-02T19:05:40.719Z,8.17
2023-04-02T19:08:29.397Z,8.12
2023-04-02T19:11:04.197Z,8.06
2023-04-02T19:13:35.865Z,8.00
2023-04-02T19:16:28.375Z,8.00
2023-04-02T19:19:21.491Z,7.95
2023-04-02T19:22:02.625Z,7.87
2023-04-02T19:24:36.370Z,7.82
2023-04-02T19:27:12.051Z,7.82
2023-04-02T19:30:03.147Z,7.83
2023-04-02T19:32:37.456Z,7.88
2023-04-02T19:35:36.158Z,7.93
2023-04-02T19:38:39.869Z,7.90
2023-04-02T19:41:31.206Z,7.90
2023-04-02T19:43:57.960Z,7.88
2023-04-02T19:46:26.441Z,7.86
2023-04-02T19:49:30.639Z,7.86
2023-04-02T19:51:59.486Z,7.87
2023-04-02T19:54:26.146Z,7.94
2023-04-02T19:56:53.007Z,8.01
2023-04-02T19:59:19.506Z,8.07
2023-04-02T20:01:46.736Z,8.10
2023-04-02T20:04:24.761Z,8.11
2023-04-02T20:06:51.805Z,8.14
2023-04-02T20:09:18.288Z,8.14
2023-04-02T20:11:46.645Z,8.14
2023-04-02T20:14:13.302Z,8.16
2023-04-02T20:16:40.161Z,8.15
2023-04-02T20:19:08.466Z,8.17
2023-04-02T20:21:38.453Z,8.14
2023-04-02T20:24:08.431Z,8.12
2023-04-02T20:26:36.352Z,8.12
2023-04-02T20:29:07.617Z,8.13
2023-04-02T20:31:34.623Z,8.14
2023-04-02T20:34:04.514Z,8.12
2023-04-02T20:36:31.598Z,8.09
2023-04-02T20:38:58.755Z,8.12
2023-04-02T20:41:32.966Z,8.12
2023-04-02T20:43:59.482Z,8.13
2023-04-02T20:46:26.184Z,8.12
2023-04-02T20:48:52.881Z,8.12
2023-04-02T20:51:19.412Z,8.10
2023-04-02T20:53:46.672Z,8.10
2023-04-02T20:56:17.816Z,8.09
2023-04-02T20:58:44.673Z,8.10
2023-04-02T21:01:26.339Z,8.11
2023-04-02T21:04:00.702Z,8.12
2023-04-02T21:06:31.689Z,8.10
2023-04-02T21:08:58.305Z,8.11
2023-04-02T21:11:26.250Z,8.11
2023-04-02T21:13:54.665Z,8.11
2023-04-02T21:16:29.598Z,8.08
2023-04-02T21:19:00.242Z,8.12
2023-04-02T21:21:27.660Z,8.14
2023-04-02T21:23:57.198Z,8.12
2023-04-02T21:26:31.900Z,8.11
2023-04-02T21:28:59.942Z,8.11
2023-04-02T21:31:30.602Z,8.09
2023-04-02T21:34:00.718Z,8.06
2023-04-02T21:36:29.850Z,8.07
2023-04-02T21:38:59.287Z,8.07
2023-04-02T21:41:39.199Z,8.08
2023-04-02T21:44:09.942Z,8.12
2023-04-02T21:46:38.648Z,8.09
2023-04-02T21:49:12.564Z,8.07
2023-04-02T21:51:41.017Z,8.08
2023-04-02T21:54:11.604Z,8.09
2023-04-02T21:56:42.310Z,8.11
2023-04-02T21:59:10.624Z,8.09
2023-04-02T22:01:40.606Z,8.08
2023-04-02T22:04:10.620Z,8.08
2023-04-02T22:06:40.716Z,8.06
2023-04-02T22:09:10.710Z,8.07
2023-04-02T22:11:43.300Z,8.06
2023-04-02T22:14:10.371Z,8.04
2023-04-02T22:16:37.402Z,8.03
2023-04-02T22:19:09.395Z,8.04
2023-04-02T22:21:36.964Z,8.02
2023-04-02T22:24:05.723Z,8.00
2023-04-02T22:26:33.815Z,7.99
2023-04-02T22:29:00.620Z,7.98
2023-04-02T22:31:29.850Z,7.96
2023-04-02T22:33:58.391Z,7.96
2023-04-02T22:36:27.148Z,7.92
2023-04-02T22:38:56.674Z,7.91
2023-04-02T22:41:29.162Z,7.90
2023-04-02T22:43:56.676Z,7.89
2023-04-02T22:46:26.745Z,7.86
2023-04-02T22:48:54.459Z,7.87
2023-04-02T22:51:22.327Z,7.87
2023-04-02T22:53:50.220Z,7.86
2023-04-02T22:56:21.773Z,7.87
2023-04-02T22:58:48.948Z,7.85
2023-04-02T23:01:19.236Z,7.84
2023-04-02T23:03:45.954Z,7.81
2023-04-02T23:06:14.742Z,7.81
2023-04-02T23:08:41.462Z,7.78
2023-04-02T23:11:18.546Z,7.75
2023-04-02T23:13:47.663Z,7.69
2023-04-02T23:16:15.485Z,7.66
2023-04-02T23:18:43.355Z,7.64
2023-04-02T23:21:10.263Z,7.58
2023-04-02T23:23:36.823Z,7.53
2023-04-02T23:26:17.143Z,7.50
2023-04-02T23:28:44.564Z,7.47
2023-04-02T23:31:15.050Z,7.47
2023-04-02T23:33:42.452Z,7.47
2023-04-02T23:36:11.206Z,7.45
2023-04-02T23:38:37.768Z,7.44
2023-04-02T23:41:11.116Z,7.43
2023-04-02T23:43:37.604Z,7.39
2023-04-02T23:46:04.123Z,7.35
2023-04-02T23:48:30.744Z,7.32
2023-04-02T23:50:57.269Z,7.32
2023-04-02T23:53:28.439Z,7.27
2023-04-02T23:55:55.078Z,7.25
2023-04-02T23:58:21.581Z,7.23
